Terminal Aerodrome Forecast
Issued by NWS

Home | Current Version | Previous Version | Text Only | Print | Product List | Glossary On
Versions: 1 2 3 4 5 6 7 8 9 10 11 12 13
000
FTUS45 KABQ 260500
TAFSAF
TAF
KSAF 260536Z 2606/2706 VRB05KT 5SM -SN OVC025
      TEMPO 2606/2610 1SM -SN OVC008
     FM261000 19005KT P6SM BKN025
     FM261800 25014KT P6SM VCSH BKN040
     FM270100 32006KT P6SM BKN080=

USA.gov is the U.S. government's official web portal to all federal, state and local government web resources and services.